Time;durP1;ratioP1;P1;durP2;ratioP2;P2;SDS_P1;SDS_P2;PMS_P1;PMS_P2;Temp;Humidity;BMP_temperature;BMP_pressure;BME280_temperature;BME280_humidity;BME280_pressure;Samples;Min_cycle;Max_cycle;Signal;HPM_P1;HPM_P2
2022/05/03 00:02:49;;;;;;;37.48;25.60;;;;;;;5.47;86.45;97968.30;1804246;79;21022;-78
2022/05/03 00:05:37;;;;;;;42.85;27.22;;;;;;;5.37;88.25;97968.45;1804089;79;22032;-88
2022/05/03 00:08:26;;;;;;;43.20;26.25;;;;;;;5.36;89.31;97960.64;1804785;78;20971;-79
2022/05/03 00:11:08;;;;;;;;;;;;;;;5.44;90.57;97962.09;1807056;79;20994;-79
2022/05/03 00:13:58;;;;;;;34.75;23.40;;;;;;;5.49;90.34;97967.02;1804638;79;20698;-78
2022/05/03 00:16:24;;;;;;;33.73;22.15;;;;;;;5.47;89.48;97960.23;1800869;79;21028;-78
2022/05/03 00:18:50;;;;;;;39.65;24.27;;;;;;;5.51;89.99;97963.55;1777232;79;21098;-79
2022/05/03 00:21:16;;;;;;;42.93;25.52;;;;;;;5.46;91.69;97960.77;1820384;78;20954;-88
2022/05/03 00:23:44;;;;;;;38.07;23.90;;;;;;;5.50;90.47;97962.45;1837735;78;20958;-78
2022/05/03 00:26:10;;;;;;;38.45;24.27;;;;;;;5.47;90.13;97958.39;1822880;78;20851;-87
2022/05/03 00:28:36;;;;;;;48.70;29.65;;;;;;;5.45;88.32;97965.05;1747920;79;21578;-78
2022/05/03 00:31:01;;;;;;;40.03;25.35;;;;;;;5.40;91.18;97954.25;1804826;79;21251;-78
2022/05/03 00:33:29;;;;;;;41.55;26.70;;;;;;;5.37;90.99;97960.91;1804741;79;20969;-79
2022/05/03 00:35:55;;;;;;;42.85;25.95;;;;;;;5.33;90.13;97961.14;1815988;78;20993;-87
2022/05/03 00:38:21;;;;;;;38.45;25.48;;;;;;;5.31;91.41;97960.05;1837656;78;21525;-79
2022/05/03 00:40:50;;;;;;;41.28;26.20;;;;;;;5.31;89.46;97961.93;1806234;78;20886;-87
2022/05/03 00:43:28;;;;;;;43.02;24.67;;;;;;;5.27;91.99;97960.25;1818768;78;21141;-78
2022/05/03 00:46:03;;;;;;;39.25;23.70;;;;;;;5.29;90.70;97964.02;1777675;78;21453;-78
2022/05/03 00:48:43;;;;;;;44.18;27.07;;;;;;;5.23;89.43;97963.16;1804324;78;21061;-86
2022/05/03 00:51:14;;;;;;;43.45;28.12;;;;;;;5.17;89.18;97964.13;1804631;79;20991;-86
2022/05/03 00:54:08;;;;;;;38.50;24.35;;;;;;;5.12;89.83;97965.39;1819415;78;21013;-88
2022/05/03 00:56:48;;;;;;;42.20;25.27;;;;;;;5.05;88.89;97962.08;1805010;78;21157;-87
2022/05/03 00:59:42;;;;;;;37.03;23.52;;;;;;;4.92;89.82;97962.40;1799138;79;21018;-79
2022/05/03 01:02:08;;;;;;;38.53;24.45;;;;;;;4.88;89.92;97962.09;1793302;79;20999;-79
2022/05/03 01:05:01;;;;;;;42.58;27.32;;;;;;;4.80;90.50;97959.80;1805733;79;20875;-78
2022/05/03 01:07:30;;;;;;;44.55;26.27;;;;;;;4.82;92.92;97959.02;1804425;79;21017;-79
2022/05/03 01:10:27;;;;;;;40.23;27.37;;;;;;;4.87;92.80;97954.25;1793502;78;21140;-78
2022/05/03 01:13:03;;;;;;;40.12;24.18;;;;;;;4.88;91.97;97945.98;1804606;79;21050;-78
2022/05/03 01:15:32;;;;;;;51.40;30.17;;;;;;;4.85;92.84;97952.34;1795131;78;21062;-89
2022/05/03 01:18:28;;;;;;;51.33;25.82;;;;;;;4.90;94.01;97949.75;1782215;80;21005;-87
2022/05/03 01:21:20;;;;;;;42.25;24.27;;;;;;;4.92;92.88;97954.34;1837555;76;21457;-87
2022/05/03 01:24:04;;;;;;;42.45;25.30;;;;;;;4.98;92.11;97948.00;1838298;78;21672;-87
2022/05/03 01:27:01;;;;;;;42.60;23.38;;;;;;;5.02;94.08;97949.13;1804994;78;21041;-78
2022/05/03 01:29:32;;;;;;;38.42;23.77;;;;;;;5.09;92.17;97961.33;1801399;79;20998;-78
2022/05/03 01:32:00;;;;;;;42.30;23.65;;;;;;;5.12;94.83;97953.83;1804821;79;21402;-78
2022/05/03 01:34:28;;;;;;;38.50;24.63;;;;;;;5.17;93.81;97952.05;1804886;78;21061;-87
2022/05/03 01:37:02;;;;;;;37.65;24.05;;;;;;;5.19;93.73;97953.95;1805140;79;21116;-87
2022/05/03 01:39:48;;;;;;;40.38;23.87;;;;;;;5.22;91.68;97956.69;1805013;79;21041;-79
2022/05/03 01:42:32;;;;;;;40.25;25.52;;;;;;;5.22;92.38;97956.16;1759940;81;21046;-87
2022/05/03 01:45:07;;;;;;;34.15;23.73;;;;;;;5.20;92.50;97959.59;1753250;81;21067;-78
2022/05/03 01:48:00;;;;;;;41.42;25.68;;;;;;;5.14;93.11;97959.27;1757274;80;21065;-87
2022/05/03 01:50:34;;;;;;;40.98;25.00;;;;;;;5.13;93.08;97962.17;1742755;81;21092;-78
2022/05/03 01:53:29;;;;;;;39.75;23.22;;;;;;;5.15;92.12;97957.39;1745568;80;21467;-88
2022/05/03 01:56:22;;;;;;;44.55;28.25;;;;;;;5.13;90.67;97959.48;1736901;81;21433;-79
2022/05/03 01:59:22;;;;;;;40.25;25.95;;;;;;;5.02;91.75;97963.36;1763855;80;21008;-88
2022/05/03 02:01:58;;;;;;;36.35;23.52;;;;;;;4.97;92.72;97962.49;1784225;79;20996;-86
2022/05/03 02:04:45;;;;;;;38.90;23.50;;;;;;;4.99;89.71;97950.97;1766614;80;21661;-78
2022/05/03 02:07:40;;;;;;;38.65;24.65;;;;;;;4.89;90.05;97953.50;1780088;79;21068;-87
2022/05/03 02:10:24;;;;;;;42.33;24.65;;;;;;;4.80;90.29;97953.91;1772169;79;21024;-79
2022/05/03 02:12:57;;;;;;;40.63;24.95;;;;;;;4.74;92.76;97958.09;1784356;79;21060;-87
2022/05/03 02:15:36;;;;;;;42.05;25.00;;;;;;;4.73;93.43;97956.46;1760080;80;21453;-88
2022/05/03 02:18:24;;;;;;;40.98;23.80;;;;;;;4.67;93.25;97951.53;1751985;81;21084;-87
2022/05/03 02:21:01;;;;;;;40.88;23.80;;;;;;;4.64;91.47;97954.70;1753182;81;21486;-87
2022/05/03 02:23:57;;;;;;;34.83;23.70;;;;;;;4.61;90.24;97951.15;1739380;81;21002;-79
2022/05/03 02:26:33;;;;;;;34.60;22.55;;;;;;;4.59;90.19;97951.11;1753375;81;21061;-87
2022/05/03 02:29:22;;;;;;;36.03;25.08;;;;;;;4.56;90.05;97944.90;1775478;80;21088;-87
2022/05/03 02:32:05;;;;;;;35.25;22.95;;;;;;;4.56;91.35;97951.08;1784288;79;21115;-78
2022/05/03 02:34:42;;;;;;;39.83;24.35;;;;;;;4.56;92.56;97948.39;1768729;80;20997;-87
2022/05/03 02:37:23;;;;;;;41.48;26.87;;;;;;;4.60;93.28;97952.20;1758077;80;21003;-79
2022/05/03 02:40:09;;;;;;;38.20;22.73;;;;;;;4.64;92.99;97948.53;1770875;80;21358;-88
2022/05/03 02:42:35;;;;;;;37.38;23.83;;;;;;;4.65;91.74;97949.63;1784423;79;21008;-88
2022/05/03 02:45:03;;;;;;;43.00;25.92;;;;;;;4.58;92.55;97941.44;1784723;80;21655;-78
2022/05/03 02:47:50;;;;;;;39.42;23.80;;;;;;;4.51;92.65;97946.42;1784338;79;20981;-84
2022/05/03 02:50:22;;;;;;;34.53;21.75;;;;;;;4.53;90.96;97951.05;1780224;79;21520;-78
2022/05/03 02:53:09;;;;;;;42.67;24.70;;;;;;;4.46;90.80;97947.70;1760095;80;21007;-78
2022/05/03 02:55:51;;;;;;;46.23;27.55;;;;;;;4.44;93.05;97948.47;1731572;81;20997;-79
2022/05/03 02:58:29;;;;;;;45.85;27.48;;;;;;;4.46;94.25;97950.38;1708193;81;21150;-88
2022/05/03 03:04:16;;;;;;;42.13;25.90;;;;;;;4.56;94.42;97955.63;1763077;80;20993;-78
2022/05/03 03:06:43;;;;;;;46.50;27.67;;;;;;;4.65;94.27;97957.67;1794854;78;21352;-86
2022/05/03 03:09:09;;;;;;;40.88;24.77;;;;;;;4.69;92.83;97959.33;1788900;80;20965;-78
2022/05/03 03:11:58;;;;;;;48.28;27.40;;;;;;;4.70;91.81;97955.59;1775092;80;21575;-78
2022/05/03 03:14:36;;;;;;;;;;;;;;;4.68;91.49;97951.81;1791621;78;21060;-87
2022/05/03 03:17:08;;;;;;;43.58;25.70;;;;;;;4.64;92.98;97956.05;1803141;79;20198;-88
2022/05/03 03:20:09;;;;;;;56.58;29.37;;;;;;;4.65;93.17;97944.78;1804819;79;21054;-78
2022/05/03 03:22:41;;;;;;;63.13;34.98;;;;;;;4.65;93.54;97952.84;1804702;79;21008;-88
2022/05/03 03:25:10;;;;;;;69.72;36.25;;;;;;;4.65;93.76;97948.81;1804867;79;21152;-79
2022/05/03 03:27:36;;;;;;;66.28;33.75;;;;;;;4.71;93.35;97955.90;1771269;79;21454;-86
2022/05/03 03:30:07;;;;;;;54.55;30.27;;;;;;;4.72;93.18;97958.34;1804977;79;20864;-79
2022/05/03 03:32:37;;;;;;;54.05;30.05;;;;;;;4.75;93.05;97953.81;1775640;78;21029;-79
2022/05/03 03:35:04;;;;;;;50.85;29.60;;;;;;;4.79;92.24;97954.97;1837692;78;21560;-87
2022/05/03 03:37:34;;;;;;;53.13;28.95;;;;;;;4.83;93.00;97953.94;1837687;78;21045;-79
2022/05/03 03:40:03;;;;;;;56.98;31.35;;;;;;;4.92;93.50;97961.87;1736976;80;20976;-79
2022/05/03 03:42:29;;;;;;;59.05;32.95;;;;;;;4.89;93.58;97966.92;1797449;78;21415;-79
2022/05/03 03:45:01;;;;;;;54.15;30.68;;;;;;;4.91;93.36;97959.44;1824586;78;20933;-79
2022/05/03 03:47:29;;;;;;;44.93;27.00;;;;;;;4.92;93.51;97962.40;1814768;78;21073;-79
2022/05/03 03:49:57;;;;;;;51.42;27.65;;;;;;;4.98;92.06;97964.92;1805047;79;21196;-79
2022/05/03 03:52:23;;;;;;;44.65;28.12;;;;;;;5.03;90.43;97967.67;1777698;78;21372;-87
2022/05/03 03:54:49;;;;;;;46.08;26.42;;;;;;;5.03;92.52;97959.61;1808932;78;20963;-79
2022/05/03 03:57:15;;;;;;;53.55;26.68;;;;;;;5.13;92.33;97962.17;1804521;79;21033;-79
2022/05/03 03:59:41;;;;;;;44.85;24.82;;;;;;;5.20;91.23;97958.79;1821185;78;20858;-79
2022/05/03 04:02:08;;;;;;;42.35;25.82;;;;;;;5.23;92.97;97955.63;1837438;78;21203;-79
2022/05/03 04:04:36;;;;;;;40.10;26.27;;;;;;;5.30;92.19;97955.74;1837681;78;21429;-88
2022/05/03 04:07:03;;;;;;;40.88;23.62;;;;;;;5.40;93.42;97951.57;1810797;78;25959;-88
2022/05/03 04:09:29;;;;;;;42.98;26.10;;;;;;;5.47;91.56;97954.86;1804875;79;20986;-88
2022/05/03 04:11:55;;;;;;;55.03;30.27;;;;;;;5.45;92.23;97950.28;1804610;78;20970;-87
2022/05/03 04:14:21;;;;;;;57.23;33.55;;;;;;;5.45;92.17;97957.00;1804611;79;21084;-79
2022/05/03 04:16:47;;;;;;;46.53;28.70;;;;;;;5.48;92.21;97957.86;1804647;79;20970;-88
2022/05/03 04:19:13;;;;;;;51.02;30.95;;;;;;;5.53;92.05;97962.75;1788697;78;20991;-79
2022/05/03 04:21:39;;;;;;;47.80;28.35;;;;;;;5.56;92.63;97958.78;1804637;78;20919;-78
2022/05/03 04:24:06;;;;;;;57.30;33.18;;;;;;;5.60;92.42;97967.42;1790678;80;20835;-89
2022/05/03 04:26:32;;;;;;;43.98;26.60;;;;;;;5.64;91.80;97961.85;1789342;78;21839;-88
2022/05/03 04:28:59;;;;;;;52.05;30.62;;;;;;;5.69;91.63;97956.24;1831013;78;20867;-88
2022/05/03 04:31:26;;;;;;;57.98;31.37;;;;;;;5.71;91.87;97961.64;1823092;78;21380;-88
2022/05/03 04:33:55;;;;;;;70.83;40.60;;;;;;;5.75;91.10;97968.70;1837720;78;20986;-78
2022/05/03 04:36:21;;;;;;;70.20;38.88;;;;;;;5.76;91.06;97968.98;1837079;78;21036;-87
2022/05/03 04:38:49;;;;;;;66.87;37.75;;;;;;;5.79;91.30;97969.81;1838492;78;21979;-87
2022/05/03 04:41:15;;;;;;;66.85;37.33;;;;;;;5.85;90.67;97980.39;1788695;80;21005;-78
2022/05/03 04:43:41;;;;;;;62.25;37.93;;;;;;;5.93;91.53;97973.80;1767139;80;20879;-88
2022/05/03 04:46:07;;;;;;;54.30;33.25;;;;;;;6.02;91.71;97969.59;1753056;80;21028;-87
2022/05/03 04:48:33;;;;;;;52.67;31.97;;;;;;;6.19;91.79;97976.24;1785667;79;20861;-89
2022/05/03 04:50:59;;;;;;;51.80;33.18;;;;;;;6.30;91.14;97979.31;1743332;81;22021;-88
2022/05/03 04:53:25;;;;;;;51.08;31.87;;;;;;;6.38;90.74;97982.91;1737513;80;20855;-88
2022/05/03 04:55:51;;;;;;;45.78;29.02;;;;;;;6.47;90.97;97973.30;1740105;82;21013;-87
2022/05/03 04:58:17;;;;;;;45.05;29.63;;;;;;;6.66;89.92;97978.32;1739899;82;21006;-88
2022/05/03 05:00:43;;;;;;;42.08;26.00;;;;;;;6.77;90.31;97981.41;1768109;81;20914;-79
2022/05/03 05:03:09;;;;;;;37.73;22.75;;;;;;;6.97;89.41;97984.80;1770600;80;21909;-88
2022/05/03 05:05:35;;;;;;;35.80;23.90;;;;;;;7.15;88.54;97985.75;1763887;81;20941;-88
2022/05/03 05:08:06;;;;;;;47.15;27.52;;;;;;;7.29;87.94;97983.44;1738674;82;20898;-89
2022/05/03 05:10:32;;;;;;;41.92;28.12;;;;;;;7.35;88.67;97985.91;1739992;82;21544;-88
2022/05/03 05:13:01;;;;;;;41.55;27.35;;;;;;;7.41;88.60;97991.31;1739961;82;21069;-89
2022/05/03 05:15:28;;;;;;;46.90;26.02;;;;;;;7.45;88.79;97984.35;1759712;81;21142;-79
2022/05/03 05:17:56;;;;;;;39.73;26.17;;;;;;;7.50;88.38;97988.41;1745855;82;21016;-88
2022/05/03 05:20:25;;;;;;;38.50;24.12;;;;;;;7.58;88.60;97984.69;1745783;82;21040;-89
2022/05/03 05:22:51;;;;;;;43.70;23.63;;;;;;;7.66;87.57;97986.08;1715064;82;21021;-89
2022/05/03 05:25:16;;;;;;;32.42;22.65;;;;;;;7.63;87.19;97979.88;1738188;82;21138;-87
2022/05/03 05:27:42;;;;;;;35.15;22.22;;;;;;;7.63;88.07;97985.27;1743950;81;21507;-86
2022/05/03 05:30:09;;;;;;;31.40;21.27;;;;;;;7.74;87.57;97987.47;1741361;81;21025;-88
2022/05/03 05:32:36;;;;;;;35.68;21.80;;;;;;;7.80;86.60;97986.44;1739488;82;21084;-79
2022/05/03 05:35:05;;;;;;;29.48;19.27;;;;;;;7.85;86.72;97985.09;1756356;80;21014;-88
2022/05/03 05:37:32;;;;;;;29.92;19.40;;;;;;;8.06;86.04;97980.61;1741638;81;21072;-79
2022/05/03 05:39:57;;;;;;;28.98;19.90;;;;;;;8.25;85.54;97966.91;1770817;80;21497;-88
2022/05/03 05:42:23;;;;;;;28.87;18.77;;;;;;;8.46;84.90;97972.67;1773346;80;20865;-79
2022/05/03 05:44:49;;;;;;;29.45;20.37;;;;;;;8.75;83.77;97974.33;1774440;80;20851;-79
2022/05/03 05:47:17;;;;;;;25.20;18.25;;;;;;;8.95;83.51;97972.17;1767290;80;20973;-79
2022/05/03 05:49:43;;;;;;;26.33;18.02;;;;;;;9.28;83.45;97970.00;1773521;80;20997;-79
2022/05/03 05:54:53;;;;;;;25.00;18.73;;;;;;;9.73;81.89;97966.92;1768956;80;20939;-88
2022/05/03 05:57:20;;;;;;;25.80;18.77;;;;;;;9.96;81.06;97964.14;1767582;81;20843;-89
2022/05/03 05:59:46;;;;;;;25.27;18.07;;;;;;;9.98;80.17;97960.61;1767223;80;21005;-79
2022/05/03 06:02:13;;;;;;;26.95;18.32;;;;;;;10.00;80.50;97962.49;1751341;80;21095;-87
2022/05/03 06:04:39;;;;;;;25.68;16.48;;;;;;;10.18;79.88;97957.29;1781095;80;21163;-79
2022/05/03 06:07:04;;;;;;;25.75;18.30;;;;;;;10.34;78.78;97966.18;1780721;80;21658;-90
2022/05/03 06:09:30;;;;;;;27.87;18.42;;;;;;;10.28;78.30;97965.93;1771043;80;20962;-89
2022/05/03 06:11:56;;;;;;;26.20;19.37;;;;;;;10.24;77.85;97971.63;1770964;80;20902;-79
2022/05/03 06:14:22;;;;;;;30.40;18.20;;;;;;;10.43;78.43;97979.41;1773014;80;20897;-79
2022/05/03 06:16:56;;;;;;;23.38;15.95;;;;;;;10.48;77.48;97975.84;1767756;80;21991;-79
2022/05/03 06:19:22;;;;;;;19.87;14.85;;;;;;;10.60;77.71;97970.09;1768930;80;21049;-90
2022/05/03 06:21:48;;;;;;;22.55;16.15;;;;;;;10.63;77.45;97977.10;1768622;80;20998;-80
2022/05/03 06:24:14;;;;;;;19.92;13.55;;;;;;;10.68;77.91;97967.60;1783533;80;21084;-80
2022/05/03 06:26:40;;;;;;;22.55;14.03;;;;;;;10.81;76.95;97968.05;1775208;80;21610;-79
2022/05/03 06:29:09;;;;;;;19.42;14.87;;;;;;;10.77;77.19;97962.39;1768151;80;21329;-80
2022/05/03 06:31:36;;;;;;;19.70;15.28;;;;;;;10.84;77.44;97968.27;1771219;80;20923;-79
2022/05/03 06:34:04;;;;;;;22.00;15.18;;;;;;;10.96;77.04;97963.87;1778176;80;20994;-80
2022/05/03 06:36:30;;;;;;;19.95;14.23;;;;;;;11.19;77.13;97966.37;1767558;81;21508;-79
2022/05/03 06:38:56;;;;;;;21.05;15.28;;;;;;;11.43;76.75;97967.23;1770348;80;20989;-89
2022/05/03 06:41:22;;;;;;;22.52;16.62;;;;;;;11.57;76.40;97962.76;1773402;79;21426;-79
2022/05/03 06:43:48;;;;;;;22.52;14.43;;;;;;;11.71;75.76;97966.16;1774318;80;20830;-90
2022/05/03 06:46:14;;;;;;;25.35;15.63;;;;;;;11.81;74.70;97966.08;1772032;80;21039;-80
2022/05/03 06:48:39;;;;;;;19.48;15.50;;;;;;;11.98;75.37;97968.33;1769283;80;21485;-80
2022/05/03 06:51:06;;;;;;;20.82;15.85;;;;;;;12.33;74.42;97961.63;1767400;81;20945;-80
2022/05/03 06:53:32;;;;;;;19.75;15.08;;;;;;;12.89;74.49;97956.17;1759145;79;21131;-89
2022/05/03 06:55:58;;;;;;;26.42;17.32;;;;;;;13.10;70.78;97959.39;1798899;78;20819;-90
2022/05/03 06:58:24;;;;;;;28.23;18.07;;;;;;;13.30;72.49;97955.55;1759918;81;20881;-79
2022/05/03 07:00:50;;;;;;;22.73;16.17;;;;;;;13.23;71.07;97950.48;1800880;79;21009;-80
2022/05/03 07:03:19;;;;;;;24.20;16.73;;;;;;;13.12;70.85;97947.66;1798898;79;21434;-90
2022/05/03 07:05:45;;;;;;;26.30;16.87;;;;;;;13.18;69.44;97947.83;1798968;78;21228;-79
2022/05/03 07:08:11;;;;;;;54.48;32.03;;;;;;;13.49;70.96;97944.59;1754866;81;20919;-80
2022/05/03 07:10:37;;;;;;;49.85;29.85;;;;;;;13.55;70.57;97944.76;1802130;78;20844;-90
2022/05/03 07:13:04;;;;;;;25.00;16.35;;;;;;;14.01;69.10;97940.58;1802148;78;20855;-91
2022/05/03 07:15:30;;;;;;;24.52;17.23;;;;;;;14.66;67.18;97946.30;1800279;79;20974;-80
2022/05/03 07:23:26;;;;;;;17.57;12.75;;;;;;;15.10;65.47;97941.98;1766003;80;20974;-91
2022/05/03 07:25:53;;;;;;;17.42;12.55;;;;;;;15.19;66.18;97938.75;1768464;80;21001;-90
2022/05/03 07:28:19;;;;;;;15.75;12.55;;;;;;;15.01;66.26;97930.21;1770903;80;21052;-80
2022/05/03 07:30:45;;;;;;;15.90;13.22;;;;;;;14.88;65.30;97929.97;1774500;79;21179;-80
2022/05/03 07:33:11;;;;;;;18.85;13.65;;;;;;;15.37;64.27;97936.94;1772359;78;21433;-80
2022/05/03 07:35:37;;;;;;;20.72;16.10;;;;;;;15.99;60.86;97941.04;1783562;79;20882;-80
2022/05/03 07:38:03;;;;;;;17.20;12.98;;;;;;;16.25;61.20;97935.08;1802433;79;20874;-80
2022/05/03 07:40:29;;;;;;;23.27;14.30;;;;;;;16.47;60.63;97937.44;1786629;79;20997;-80
2022/05/03 07:42:55;;;;;;;16.55;11.40;;;;;;;16.28;61.46;97936.36;1796583;79;21194;-80
2022/05/03 07:45:21;;;;;;;17.05;12.35;;;;;;;16.11;61.67;97938.49;1800676;79;20946;-91
2022/05/03 07:47:47;;;;;;;16.10;11.30;;;;;;;16.06;62.22;97939.99;1805036;79;20862;-81
2022/05/03 07:50:13;;;;;;;19.40;14.73;;;;;;;15.93;61.19;97939.56;1824033;77;20921;-80
2022/05/03 07:52:39;;;;;;;48.80;24.80;;;;;;;16.03;62.08;97946.11;1824159;78;20894;-91
2022/05/03 07:55:07;;;;;;;75.90;47.30;;;;;;;16.02;60.65;97945.30;1789153;79;21231;-80
2022/05/03 07:57:33;;;;;;;19.35;13.83;;;;;;;16.17;62.41;97949.53;1776381;79;21419;-80
2022/05/03 07:59:59;;;;;;;16.75;13.15;;;;;;;16.17;61.80;97960.47;1767023;80;21011;-91
2022/05/03 08:02:26;;;;;;;21.82;14.45;;;;;;;16.05;61.74;97956.16;1779165;79;21008;-92
2022/05/03 08:04:53;;;;;;;25.00;17.48;;;;;;;16.47;59.52;97962.84;1754668;79;21043;-91
2022/05/03 08:07:19;;;;;;;21.07;14.73;;;;;;;16.92;61.30;97965.36;1795891;79;21275;-90
2022/05/03 08:09:46;;;;;;;16.55;12.60;;;;;;;18.06;58.69;97962.05;1726636;82;37582;-81
2022/05/03 08:12:13;;;;;;;18.35;12.78;;;;;;;19.49;54.76;97963.36;1738783;82;21039;-92
2022/05/03 08:14:39;;;;;;;15.85;11.60;;;;;;;19.90;53.39;97963.22;1742454;82;21074;-81
2022/05/03 08:17:05;;;;;;;15.95;11.53;;;;;;;19.85;55.18;97960.70;1717569;82;22161;-92
2022/05/03 08:19:31;;;;;;;15.65;10.95;;;;;;;19.70;54.20;97955.29;1740935;82;21152;-81
2022/05/03 08:21:57;;;;;;;14.58;10.38;;;;;;;20.63;51.99;97958.88;1767558;80;20910;-92
2022/05/03 08:24:24;;;;;;;16.35;11.95;;;;;;;21.01;47.88;97955.67;1772547;81;20966;-92
2022/05/03 08:26:50;;;;;;;10.25;7.70;;;;;;;22.24;43.37;97946.41;1751164;81;21473;-93
2022/05/03 08:29:16;;;;;;;10.23;7.78;;;;;;;22.87;40.82;97949.61;1757424;81;20876;-81
2022/05/03 08:31:42;;;;;;;11.38;7.20;;;;;;;23.10;39.60;97951.67;1695152;82;21155;-93
2022/05/03 08:34:09;;;;;;;16.75;11.63;;;;;;;23.66;40.51;97949.22;1742305;82;20884;-92
2022/05/03 08:36:35;;;;;;;11.60;7.95;;;;;;;24.38;38.53;97946.52;1714785;82;21695;-81
2022/05/03 08:44:22;;;;;;;29.12;17.85;;;;;;;25.97;36.77;97937.77;1731748;80;21862;-81
2022/05/03 08:46:49;;;;;;;23.92;15.83;;;;;;;26.88;34.62;97937.45;1787201;80;20923;-93
2022/05/03 08:49:17;;;;;;;14.15;10.78;;;;;;;27.10;34.08;97934.81;1748697;81;21088;-93
2022/05/03 08:51:43;;;;;;;8.53;6.17;;;;;;;27.39;32.82;97930.92;1782672;80;21384;-94
2022/05/03 08:54:09;;;;;;;11.35;7.47;;;;;;;28.19;29.46;97925.08;1779243;80;20995;-81
2022/05/03 08:56:35;;;;;;;12.65;6.33;;;;;;;28.22;30.23;97924.89;1793527;79;21119;-82
2022/05/03 08:59:01;;;;;;;9.65;5.97;;;;;;;28.63;28.43;97926.06;1793625;79;20987;-81
2022/05/03 09:01:27;;;;;;;14.00;5.75;;;;;;;28.32;29.15;97926.30;1793507;79;20888;-81
2022/05/03 09:03:53;;;;;;;7.45;5.60;;;;;;;28.50;28.52;97914.34;1782846;79;20863;-94
2022/05/03 09:06:19;;;;;;;12.88;8.73;;;;;;;29.32;28.40;97915.48;1736450;79;21002;-94
2022/05/03 09:08:51;;;;;;;6.62;4.65;;;;;;;29.85;26.96;97924.95;1785122;79;21092;-82
2022/05/03 09:11:18;;;;;;;6.67;4.37;;;;;;;28.81;25.14;97921.83;1784491;78;20982;-81
2022/05/03 09:13:45;;;;;;;7.28;4.62;;;;;;;26.78;26.75;97915.95;1812168;78;21006;-81
2022/05/03 09:16:16;;;;;;;10.13;6.08;;;;;;;27.67;26.95;97917.69;1799763;79;21014;-94
2022/05/03 09:18:45;;;;;;;6.50;5.78;;;;;;;28.61;27.66;97917.28;1787089;78;21003;-95
2022/05/03 09:24:10;;;;;;;8.75;4.92;;;;;;;29.71;23.17;97916.05;1787379;78;21375;-81
2022/05/03 09:26:37;;;;;;;8.23;5.08;;;;;;;29.94;22.94;97914.10;1825794;78;21133;-82
2022/05/03 09:29:08;;;;;;;31.83;8.13;;;;;;;30.14;21.62;97908.77;1825735;78;21037;-95
2022/05/03 09:31:48;;;;;;;5.30;4.42;;;;;;;29.97;23.14;97908.29;1825798;78;21001;-95
2022/05/03 09:34:26;;;;;;;6.40;5.05;;;;;;;30.44;22.72;97905.31;1817981;78;21137;-82
2022/05/03 09:37:09;;;;;;;6.45;4.85;;;;;;;28.42;24.38;97909.97;1821408;78;21469;-82
2022/05/03 09:39:41;;;;;;;8.25;5.70;;;;;;;26.62;25.93;97906.54;1810044;78;21031;-94
2022/05/03 09:42:15;;;;;;;6.80;4.90;;;;;;;25.69;27.46;97908.35;1798088;79;21581;-92
2022/05/03 09:44:58;;;;;;;6.60;4.65;;;;;;;25.06;28.34;97905.91;1783500;79;21426;-82
2022/05/03 09:47:27;;;;;;;11.05;5.05;;;;;;;24.40;28.36;97901.84;1798310;79;21042;-94
2022/05/03 09:49:53;;;;;;;9.48;5.28;;;;;;;23.90;28.71;97900.44;1791837;79;28173;-81
2022/05/03 09:52:36;;;;;;;6.87;5.15;;;;;;;23.19;29.21;97891.44;1805460;78;20975;-81
2022/05/03 09:55:08;;;;;;;8.80;5.30;;;;;;;22.72;30.37;97889.09;1757774;78;21019;-81
2022/05/03 09:57:39;;;;;;;7.85;5.33;;;;;;;22.51;31.06;97889.44;1783024;79;21040;-93
2022/05/03 10:00:09;;;;;;;6.80;5.20;;;;;;;22.08;31.35;97894.57;1799216;76;21118;-91
2022/05/03 10:02:35;;;;;;;8.78;5.70;;;;;;;21.88;31.54;97890.13;1800343;77;21185;-90
2022/05/03 10:05:01;;;;;;;13.40;8.93;;;;;;;21.48;33.08;97890.28;1783267;78;21059;-80
2022/05/03 10:07:28;;;;;;;10.60;8.08;;;;;;;21.22;32.93;97886.03;1759383;79;20944;-92
2022/05/03 10:09:55;;;;;;;15.58;8.00;;;;;;;21.22;34.15;97883.28;1799554;79;21034;-93
2022/05/03 10:12:21;;;;;;;6.25;4.83;;;;;;;22.08;34.76;97884.91;1829960;78;21096;-80
2022/05/03 10:14:48;;;;;;;7.05;6.10;;;;;;;21.30;33.94;97887.86;1834177;75;20847;-80
2022/05/03 10:20:38;;;;;;;13.78;6.60;;;;;;;23.73;32.34;97889.08;1798883;77;21008;-81
2022/05/03 10:23:24;;;;;;;7.75;6.50;;;;;;;25.95;29.49;97872.14;1781533;79;21016;-93
2022/05/03 10:25:59;;;;;;;7.90;5.40;;;;;;;27.60;27.76;97880.67;1830897;78;21278;-81
2022/05/03 10:28:29;;;;;;;6.05;5.28;;;;;;;25.96;26.47;97873.72;1808834;77;21033;-94
2022/05/03 10:31:13;;;;;;;6.22;4.70;;;;;;;26.93;27.94;97867.59;1749100;80;21001;-94
2022/05/03 10:33:40;;;;;;;9.15;5.00;;;;;;;28.72;23.49;97869.10;1809702;78;21017;-81
2022/05/03 10:36:35;;;;;;;7.37;4.77;;;;;;;30.41;23.84;97863.41;1791833;78;21026;-82
2022/05/03 10:39:21;;;;;;;5.15;4.40;;;;;;;29.52;20.67;97867.74;1809247;78;21133;-81
2022/05/03 10:41:56;;;;;;;7.65;5.17;;;;;;;31.81;21.67;97857.66;1733483;82;21016;-94
2022/05/03 10:44:48;;;;;;;5.90;4.35;;;;;;;31.91;21.57;97856.68;1799507;79;21010;-81
2022/05/03 10:47:20;;;;;;;6.90;3.90;;;;;;;33.18;21.12;97856.10;1798074;78;20998;-95
2022/05/03 10:50:19;;;;;;;5.30;4.03;;;;;;;33.52;19.12;97852.95;1796474;78;21057;-81
2022/05/03 10:53:02;;;;;;;7.47;4.70;;;;;;;33.80;18.32;97845.23;1819216;77;21078;-81
2022/05/03 10:55:31;;;;;;;6.53;4.33;;;;;;;31.77;19.55;97839.48;1792508;79;21568;-94
2022/05/03 10:58:25;;;;;;;6.53;4.10;;;;;;;32.66;19.29;97839.31;1799810;79;20920;-95
2022/05/03 11:01:23;;;;;;;7.95;5.00;;;;;;;34.12;18.21;97833.84;1791747;79;20998;-90
2022/05/03 11:04:01;;;;;;;6.58;4.92;;;;;;;32.47;19.73;97843.66;1785543;79;21471;-95
2022/05/03 11:06:31;;;;;;;5.75;4.80;;;;;;;32.60;18.21;97831.22;1780419;79;21057;-82
2022/05/03 11:11:46;;;;;;;8.53;5.03;;;;;;;31.81;20.31;97831.05;1802013;79;20998;-81
2022/05/03 11:14:22;;;;;;;7.53;5.25;;;;;;;30.28;21.52;97830.41;1792179;78;20984;-82
2022/05/03 11:17:06;;;;;;;8.05;5.33;;;;;;;30.76;20.19;97827.29;1756849;79;21051;-93
2022/05/03 11:19:38;;;;;;;6.60;4.65;;;;;;;30.20;21.20;97829.50;1797891;79;21124;-81
2022/05/03 11:22:13;;;;;;;6.58;5.40;;;;;;;30.96;20.99;97819.86;1799758;77;20960;-95
2022/05/03 11:24:44;;;;;;;6.35;4.75;;;;;;;29.95;21.47;97821.33;1777237;79;20987;-87
2022/05/03 11:27:10;;;;;;;6.15;5.15;;;;;;;29.41;22.59;97820.95;1801466;79;20982;-82
2022/05/03 11:29:39;;;;;;;33.98;27.90;;;;;;;29.09;22.98;97822.55;1800140;79;20931;-81
2022/05/03 11:32:06;;;;;;;6.97;5.90;;;;;;;28.44;23.77;97823.38;1786259;79;21770;-95
2022/05/03 11:34:32;;;;;;;6.10;5.00;;;;;;;27.55;23.89;97815.89;1757017;80;20960;-94
2022/05/03 11:36:58;;;;;;;12.73;9.13;;;;;;;27.71;23.99;97810.56;1790534;79;20943;-94
2022/05/03 11:39:24;;;;;;;5.55;4.20;;;;;;;27.41;23.95;97811.70;1799600;79;20995;-81
2022/05/03 11:41:50;;;;;;;6.12;4.90;;;;;;;25.86;25.34;97811.41;1799658;79;20879;-93
2022/05/03 11:44:16;;;;;;;5.47;4.60;;;;;;;25.37;26.02;97812.35;1803571;78;21076;-93
2022/05/03 11:46:45;;;;;;;6.12;4.75;;;;;;;25.64;26.51;97806.87;1799626;79;21044;-94
2022/05/03 11:49:13;;;;;;;5.97;4.92;;;;;;;25.79;26.23;97805.00;1799222;78;21046;-80
2022/05/03 11:57:31;;;;;;;8.13;5.87;;;;;;;24.56;27.12;97795.84;1783776;79;21113;-93
2022/05/03 11:59:58;;;;;;;9.10;7.72;;;;;;;24.57;27.50;97795.25;1775954;79;21062;-80
2022/05/03 12:02:36;;;;;;;6.40;4.40;;;;;;;24.55;28.19;97797.60;1797791;79;21471;-93
2022/05/03 12:05:11;;;;;;;;;;;;;;;24.73;27.85;97799.41;1776508;79;21479;-81
2022/05/03 12:07:45;;;;;;;5.92;4.03;;;;;;;24.66;27.71;97796.55;1783632;79;20190;-93
2022/05/03 12:10:24;;;;;;;7.75;4.90;;;;;;;24.37;28.02;97794.02;1787640;79;21120;-93
2022/05/03 12:13:12;;;;;;;5.80;4.40;;;;;;;23.90;28.24;97793.92;1806532;78;20982;-93
2022/05/03 12:15:41;;;;;;;9.25;5.78;;;;;;;23.16;29.12;97795.43;1763908;79;21043;-93
2022/05/03 12:18:16;;;;;;;10.70;6.78;;;;;;;22.17;30.32;97794.46;1749590;80;21052;-80
2022/05/03 12:20:58;;;;;;;20.00;13.10;;;;;;;22.12;30.71;97796.70;1793886;79;20994;-93